Ncc Reem — 3FPV4 — position and weather

sailwx.info

Track history (hours):
 
Tides and Currents Weather Stations Pressure Air Temp Water Temp Dewpoint Dewpoint Depression Visibility Wind Speed Wind Dir Waves Ship Positions

Ncc Reem

Last reported at 2018-Aug-04 05:30 UTC. Time now 2018-Aug-20 16:06 UTC.
Position S 36°19' E 174°58'.
Warning: this ship's position is 16 days out of date.

Length 200 m; draft 11.6 m.

Type: Cargo ship. MMSI: 372930000.

Date/timePositionNaut miles runAvg speedWind from/ knotsBaromVisibWave heightAir tempDewpointWater temp
2018-Aug-04 05:30S 36°19' E 174°58'1811.2
2018-Aug-04 03:55S 36°37' E 174°57'611.8
2018-Aug-04 03:23S 36°42' E 174°53'410.6
2018-Aug-04 02:58S 36°45' E 174°50'5 0.1
2018-Aug-01 23:40S 36°50' E 174°48'1 6.3
2018-Aug-01 23:27S 36°50' E 174°49'5 8.8
2018-Aug-01 22:50S 36°45' E 174°50'1 0.4
2018-Aug-01 20:43S 36°44' E 174°51'0 0.1
2018-Aug-01 20:29S 36°44' E 174°51'0 0.0
2018-Aug-01 20:00S 36°44' E 174°51'0 0.1
2018-Aug-01 19:30S 36°44' E 174°51'0 0.1
2018-Aug-01 19:00S 36°44' E 174°51'0 0.9
2018-Aug-01 18:29S 36°44' E 174°51'3 5.8
2018-Aug-01 18:00S 36°42' E 174°53'3 6.3
2018-Aug-01 17:30S 36°39' E 174°55'4 8.7
2018-Aug-01 17:00S 36°36' E 174°58'611.3
2018-Aug-01 16:30S 36°30' E 175°00'510.4
2018-Aug-01 16:00S 36°25' E 175°02'510.3
2018-Aug-01 15:30S 36°20' E 174°59'4 7.6
2018-Aug-01 14:59S 36°17' E 174°57'  
Track history (hours):
 
Tides and Currents Weather Stations Pressure Air Temp Water Temp Dewpoint Dewpoint Depression Visibility Wind Speed Wind Dir Waves Ship Positions

Ncc Reem

Last reported at 2018-Aug-04 05:30 UTC. Time now 2018-Aug-20 16:06 UTC.
Position S 36°19' E 174°58'.
Warning: this ship's position is 16 days out of date.

Length 200 m; draft 11.6 m.

Type: Cargo ship. MMSI: 372930000.

Date/timePositionNaut miles runAvg speedWind from/ knotsBaromVisibWave heightAir tempDewpointWater temp
2018-Aug-04 05:30S 36°19' E 174°58'1811.2
2018-Aug-04 03:55S 36°37' E 174°57'611.8
2018-Aug-04 03:23S 36°42' E 174°53'410.6
2018-Aug-04 02:58S 36°45' E 174°50'5 0.1
2018-Aug-01 23:40S 36°50' E 174°48'1 6.3
2018-Aug-01 23:27S 36°50' E 174°49'5 8.8
2018-Aug-01 22:50S 36°45' E 174°50'1 0.4
2018-Aug-01 20:43S 36°44' E 174°51'0 0.1
2018-Aug-01 20:29S 36°44' E 174°51'0 0.0
2018-Aug-01 20:00S 36°44' E 174°51'0 0.1
2018-Aug-01 19:30S 36°44' E 174°51'0 0.1
2018-Aug-01 19:00S 36°44' E 174°51'0 0.9
2018-Aug-01 18:29S 36°44' E 174°51'3 5.8
2018-Aug-01 18:00S 36°42' E 174°53'3 6.3
2018-Aug-01 17:30S 36°39' E 174°55'4 8.7
2018-Aug-01 17:00S 36°36' E 174°58'611.3
2018-Aug-01 16:30S 36°30' E 175°00'510.4
2018-Aug-01 16:00S 36°25' E 175°02'510.3
2018-Aug-01 15:30S 36°20' E 174°59'4 7.6
2018-Aug-01 14:59S 36°17' E 174°57'  

Dump ship's entire track history